Time;durP1;ratioP1;P1;durP2;ratioP2;P2;SDS_P1;SDS_P2;PMS_P1;PMS_P2;Temp;Humidity;BMP_temperature;BMP_pressure;BME280_temperature;BME280_humidity;BME280_pressure;Samples;Min_cycle;Max_cycle;Signal;HPM_P1;HPM_P2
2024/01/17 00:00:17;;;;;;;6.50;4.88;;;;;;;6.42;75.76;101796.38;5082605;28;20409;-84
2024/01/17 00:02:42;;;;;;;7.50;5.30;;;;;;;6.30;75.88;101786.72;5082441;28;20078;-84
2024/01/17 00:05:11;;;;;;;8.88;5.30;;;;;;;6.43;75.33;101809.47;5084604;28;20032;-84
2024/01/17 00:07:37;;;;;;;8.77;5.40;;;;;;;5.81;75.46;101696.84;5088734;28;20575;-84
2024/01/17 00:10:03;;;;;;;7.43;5.20;;;;;;;5.94;75.53;101724.75;5084812;28;20105;-83
2024/01/17 00:12:30;;;;;;;6.70;4.57;;;;;;;6.24;75.42;101775.81;5088615;28;20028;-85
2024/01/17 00:14:56;;;;;;;7.53;5.05;;;;;;;6.38;75.59;101808.16;5085242;28;20032;-84
2024/01/17 00:17:21;;;;;;;7.28;5.03;;;;;;;5.93;75.46;101717.75;5088853;28;20047;-84
2024/01/17 00:19:47;;;;;;;7.18;4.88;;;;;;;6.06;75.36;101740.53;5088182;28;20020;-84
2024/01/17 00:22:16;;;;;;;6.57;4.82;;;;;;;6.19;75.34;101766.75;5089443;28;20031;-83
2024/01/17 00:24:42;;;;;;;6.80;4.95;;;;;;;6.28;75.46;101780.50;5088886;28;20032;-83
2024/01/17 00:27:08;;;;;;;7.05;5.07;;;;;;;6.16;75.36;101765.56;5088563;28;20028;-84
2024/01/17 00:29:34;;;;;;;7.50;5.25;;;;;;;6.23;75.43;101771.44;5087905;28;20508;-84
2024/01/17 00:32:01;;;;;;;7.45;5.10;;;;;;;6.14;75.52;101759.31;5089633;28;20035;-83
2024/01/17 00:34:26;;;;;;;;;;;;;;;6.41;75.77;101811.03;5087975;28;20047;-83
2024/01/17 00:36:52;;;;;;;7.90;5.18;;;;;;;6.08;76.08;101760.63;5087958;28;19949;-83
2024/01/17 00:39:18;;;;;;;8.65;5.13;;;;;;;6.21;75.97;101791.13;5089592;28;20066;-85
2024/01/17 00:41:45;;;;;;;6.72;4.75;;;;;;;6.01;75.30;101749.56;5088622;28;20421;-84
2024/01/17 00:44:15;;;;;;;7.28;5.10;;;;;;;6.04;76.03;101760.22;5085773;28;20039;-85
2024/01/17 00:46:41;;;;;;;6.60;5.00;;;;;;;6.24;75.46;101795.66;5075926;28;20024;-85
2024/01/17 00:49:06;;;;;;;6.55;4.78;;;;;;;5.99;75.48;101739.09;5085103;28;20474;-85
2024/01/17 00:51:32;;;;;;;7.30;4.97;;;;;;;6.09;75.60;101759.81;5086890;28;20036;-86
2024/01/17 00:53:57;;;;;;;7.40;4.97;;;;;;;6.06;75.55;101748.31;5086944;28;20048;-85
2024/01/17 00:56:23;;;;;;;7.30;5.00;;;;;;;6.14;75.43;101752.47;5087907;28;20623;-87
2024/01/17 00:58:49;;;;;;;6.97;4.80;;;;;;;5.70;75.42;101679.47;5085455;28;20029;-85
2024/01/17 01:01:15;;;;;;;6.60;4.57;;;;;;;6.14;75.41;101748.94;5084919;28;20032;-85
2024/01/17 01:03:40;;;;;;;7.68;4.95;;;;;;;5.87;75.44;101704.25;5086528;28;20028;-86
2024/01/17 01:06:06;;;;;;;6.53;5.00;;;;;;;6.07;75.54;101753.59;5091045;28;20032;-86
2024/01/17 01:08:32;;;;;;;7.50;5.00;;;;;;;6.16;75.63;101757.78;5086771;28;20032;-86
2024/01/17 01:10:58;;;;;;;6.22;4.47;;;;;;;6.18;75.19;101751.97;5092295;28;20110;-84
2024/01/17 01:13:25;;;;;;;7.22;5.03;;;;;;;6.29;75.86;101771.06;5088256;28;20036;-86
2024/01/17 01:15:50;;;;;;;7.20;5.18;;;;;;;6.14;75.85;101743.75;5093177;28;20028;-86
2024/01/17 01:18:16;;;;;;;6.97;4.78;;;;;;;6.22;75.84;101747.94;5091607;28;20012;-86
2024/01/17 01:20:42;;;;;;;7.95;5.43;;;;;;;6.27;75.74;101750.16;5091923;28;20032;-85
2024/01/17 01:23:08;;;;;;;6.88;4.80;;;;;;;6.11;75.53;101731.44;5070987;28;20040;-86
2024/01/17 01:25:33;;;;;;;7.03;4.90;;;;;;;6.13;75.50;101732.50;5089990;28;20492;-85
2024/01/17 01:27:59;;;;;;;7.35;4.53;;;;;;;6.35;75.92;101762.88;5079836;28;20055;-86
2024/01/17 01:30:25;;;;;;;6.72;4.82;;;;;;;6.13;75.93;101724.72;5091701;28;20032;-86
2024/01/17 01:32:51;;;;;;;6.20;4.85;;;;;;;6.31;75.95;101747.06;5074942;28;20098;-86
2024/01/17 01:35:16;;;;;;;6.43;4.57;;;;;;;6.19;75.81;101727.84;5092809;28;20039;-85
2024/01/17 01:37:42;;;;;;;6.75;4.75;;;;;;;5.83;75.62;101659.00;5091186;28;20016;-86
2024/01/17 01:40:08;;;;;;;6.82;4.70;;;;;;;6.15;75.95;101717.97;5091084;28;20020;-85
2024/01/17 01:42:35;;;;;;;6.30;4.57;;;;;;;5.86;75.56;101671.31;5090190;28;20032;-84
2024/01/17 01:45:00;;;;;;;7.20;4.68;;;;;;;5.98;75.84;101687.09;5091023;28;20123;-83
2024/01/17 01:47:26;;;;;;;8.02;4.50;;;;;;;5.80;75.42;101650.97;5093765;28;20107;-84
2024/01/17 01:49:52;;;;;;;7.03;4.53;;;;;;;5.89;75.86;101671.59;5097412;28;20055;-85
2024/01/17 01:52:20;;;;;;;6.30;4.78;;;;;;;6.04;75.49;101688.53;5095718;28;20386;-85
2024/01/17 01:54:46;;;;;;;5.78;4.13;;;;;;;5.85;75.60;101652.28;5085769;28;20051;-85
2024/01/17 01:57:12;;;;;;;7.30;4.35;;;;;;;6.00;75.42;101693.31;5089972;28;20494;-84
2024/01/17 01:59:38;;;;;;;6.30;4.30;;;;;;;6.29;75.68;101743.44;5087468;28;20105;-86
2024/01/17 02:02:05;;;;;;;6.63;4.88;;;;;;;6.05;75.68;101700.72;5087669;28;20024;-86
2024/01/17 02:04:34;;;;;;;6.65;4.50;;;;;;;6.08;75.76;101695.78;5089173;28;20078;-86
2024/01/17 02:07:00;;;;;;;6.32;4.38;;;;;;;6.02;75.96;101679.69;5090791;28;20020;-86
2024/01/17 02:09:26;;;;;;;6.30;4.43;;;;;;;6.15;75.74;101705.00;5072445;28;20043;-85
2024/01/17 02:11:52;;;;;;;5.35;4.15;;;;;;;6.10;75.97;101699.44;5090767;28;20032;-85
2024/01/17 02:14:19;;;;;;;5.88;4.05;;;;;;;5.99;75.77;101681.09;5091091;28;20177;-85
2024/01/17 02:16:46;;;;;;;5.70;4.40;;;;;;;6.06;75.79;101692.16;5082627;28;20489;-85
2024/01/17 02:19:16;;;;;;;5.70;4.03;;;;;;;5.96;75.78;101675.69;5081989;28;20427;-85
2024/01/17 02:21:42;;;;;;;6.90;4.43;;;;;;;5.81;75.71;101650.19;5089068;28;20032;-86
2024/01/17 02:24:20;;;;;;;6.30;4.40;;;;;;;5.93;75.90;101665.91;5090136;28;20515;-85
2024/01/17 02:26:46;;;;;;;6.25;4.47;;;;;;;6.11;75.91;101700.31;5090124;28;20028;-85
2024/01/17 02:29:12;;;;;;;5.45;4.18;;;;;;;6.24;75.77;101729.13;5107357;28;20032;-85
2024/01/17 02:31:38;;;;;;;7.47;4.28;;;;;;;6.01;75.69;101701.25;5086166;28;20154;-84
2024/01/17 02:34:04;;;;;;;;;;;;;;;6.26;75.73;101742.25;5088133;28;20024;-84
2024/01/17 02:36:30;;;;;;;5.60;4.18;;;;;;;5.95;75.81;101682.56;5102508;28;20010;-86
2024/01/17 02:38:55;;;;;;;7.50;5.05;;;;;;;6.11;75.96;101724.56;5087411;28;20031;-86
2024/01/17 02:41:21;;;;;;;6.45;4.70;;;;;;;6.21;75.89;101747.03;5089711;28;20035;-84
2024/01/17 02:43:46;;;;;;;8.65;4.93;;;;;;;5.86;76.03;101682.63;5089572;28;20032;-84
2024/01/17 02:46:12;;;;;;;7.15;4.40;;;;;;;5.88;75.68;101682.72;5089728;28;20038;-86
2024/01/17 02:48:38;;;;;;;5.38;3.97;;;;;;;5.79;75.98;101674.16;5088941;28;20032;-87
2024/01/17 02:51:04;;;;;;;6.85;4.88;;;;;;;5.88;75.83;101686.25;5072585;28;20417;-86
2024/01/17 02:53:29;;;;;;;6.53;4.35;;;;;;;6.18;75.69;101740.66;5072166;28;20036;-86
2024/01/17 02:55:55;;;;;;;5.78;4.35;;;;;;;5.99;75.99;101707.97;5088334;28;20040;-86
2024/01/17 02:58:20;;;;;;;6.25;4.60;;;;;;;6.10;76.06;101738.31;5086207;28;20032;-86
2024/01/17 03:00:46;;;;;;;5.30;3.95;;;;;;;6.19;75.70;101764.16;5087540;28;20020;-86
2024/01/17 03:03:12;;;;;;;6.07;4.07;;;;;;;6.03;75.88;101730.81;5087609;28;20042;-86
2024/01/17 03:05:37;;;;;;;5.22;4.13;;;;;;;6.07;75.76;101731.94;5088930;28;20020;-87
2024/01/17 03:08:05;;;;;;;5.80;4.30;;;;;;;5.98;75.68;101720.78;5086901;28;20035;-87
2024/01/17 03:10:31;;;;;;;6.45;4.53;;;;;;;6.10;75.89;101737.44;5086804;28;20031;-86
2024/01/17 03:12:56;;;;;;;5.75;4.43;;;;;;;6.11;75.77;101740.13;5086283;28;20024;-86
2024/01/17 03:15:23;;;;;;;6.25;4.57;;;;;;;6.17;75.74;101750.13;5087473;28;20036;-86
2024/01/17 03:17:49;;;;;;;5.60;4.15;;;;;;;5.86;75.88;101693.00;5089922;28;20073;-86
2024/01/17 03:20:15;;;;;;;6.32;4.05;;;;;;;5.86;75.94;101697.25;5071386;28;20043;-86
2024/01/17 03:22:41;;;;;;;6.07;4.30;;;;;;;5.78;75.78;101683.63;5081351;28;20027;-86
2024/01/17 03:25:08;;;;;;;5.50;4.00;;;;;;;5.89;75.82;101701.03;5085277;28;20460;-86
2024/01/17 03:27:34;;;;;;;6.55;4.57;;;;;;;6.12;75.84;101746.25;5100307;28;20405;-86
2024/01/17 03:29:59;;;;;;;;;;;;;;;6.14;75.97;101751.53;5082545;28;20024;-86
2024/01/17 03:32:25;;;;;;;6.10;4.28;;;;;;;5.98;75.88;101726.88;5084713;28;20427;-86
2024/01/17 03:34:51;;;;;;;5.82;4.10;;;;;;;6.09;76.00;101745.97;5087784;28;20059;-86
2024/01/17 03:37:18;;;;;;;6.07;4.15;;;;;;;5.86;76.10;101720.56;5087787;28;20550;-86
2024/01/17 03:39:47;;;;;;;5.82;4.40;;;;;;;5.86;75.93;101718.91;5087743;28;20024;-86
2024/01/17 03:42:15;;;;;;;6.53;4.28;;;;;;;6.14;75.93;101769.69;5085475;28;20036;-86
2024/01/17 03:44:42;;;;;;;6.45;4.60;;;;;;;5.66;76.03;101693.81;5085649;28;20105;-86
2024/01/17 03:47:09;;;;;;;5.75;4.18;;;;;;;5.92;75.84;101737.56;5086071;28;20023;-86
2024/01/17 03:49:34;;;;;;;6.75;4.60;;;;;;;5.69;76.11;101701.88;5072057;28;20119;-86
2024/01/17 03:52:00;;;;;;;5.78;4.43;;;;;;;5.84;76.33;101725.66;5087783;28;20188;-86
2024/01/17 03:54:26;;;;;;;6.68;4.63;;;;;;;5.75;76.06;101700.59;5090004;28;20059;-86
2024/01/17 03:56:54;;;;;;;6.25;4.22;;;;;;;5.47;75.80;101654.09;5072142;28;20153;-85
2024/01/17 03:59:19;;;;;;;;;;;;;;;6.11;76.07;101757.38;5089267;28;20039;-86
2024/01/17 04:01:46;;;;;;;6.38;4.43;;;;;;;5.78;76.09;101698.25;5085282;28;19923;-84
2024/01/17 04:04:11;;;;;;;5.20;3.97;;;;;;;5.86;75.96;101708.53;5071733;28;20671;-84
2024/01/17 04:06:38;;;;;;;5.32;4.25;;;;;;;5.70;75.92;101682.03;5092215;28;20119;-85
2024/01/17 04:09:03;;;;;;;6.18;4.47;;;;;;;5.64;76.17;101682.41;5087194;28;20073;-85
2024/01/17 04:11:29;;;;;;;7.63;4.53;;;;;;;6.05;76.37;101759.44;5074887;28;20028;-85
2024/01/17 04:13:55;;;;;;;6.20;4.18;;;;;;;5.68;75.80;101700.03;5084694;28;20059;-85
2024/01/17 04:16:20;;;;;;;6.63;4.70;;;;;;;5.47;75.99;101662.78;5091616;28;20047;-85
2024/01/17 04:18:46;;;;;;;6.50;4.35;;;;;;;5.54;76.07;101684.03;5073338;28;20379;-85
2024/01/17 04:21:19;;;;;;;7.40;4.82;;;;;;;5.70;76.22;101723.50;5087989;28;20032;-86
2024/01/17 04:23:47;;;;;;;6.88;4.30;;;;;;;5.79;76.18;101734.69;5084360;28;20511;-84
2024/01/17 04:26:23;;;;;;;5.55;4.10;;;;;;;5.91;76.02;101753.00;5086172;28;20070;-85
2024/01/17 04:28:53;;;;;;;7.78;4.63;;;;;;;5.83;76.04;101748.84;5086618;28;20020;-85
2024/01/17 04:31:26;;;;;;;5.90;4.20;;;;;;;5.97;76.18;101779.53;5067169;28;20036;-85
2024/01/17 04:33:52;;;;;;;6.30;4.68;;;;;;;5.98;75.90;101772.63;5095402;28;20127;-85
2024/01/17 04:36:19;;;;;;;4.85;3.75;;;;;;;5.81;76.28;101742.59;5091787;28;20039;-85
2024/01/17 04:38:45;;;;;;;6.57;4.40;;;;;;;5.99;75.91;101765.00;5087752;28;20048;-86
2024/01/17 04:41:11;;;;;;;5.28;4.20;;;;;;;5.72;76.04;101724.56;5092243;28;20059;-85
2024/01/17 04:43:40;;;;;;;6.45;4.25;;;;;;;5.63;75.94;101695.22;5092901;28;20036;-86
2024/01/17 04:46:12;;;;;;;5.45;4.10;;;;;;;5.79;75.91;101723.41;5092684;28;20032;-85
2024/01/17 04:48:39;;;;;;;6.28;4.40;;;;;;;5.97;75.91;101765.63;5075650;28;20024;-85
2024/01/17 04:51:05;;;;;;;5.18;4.15;;;;;;;5.98;76.21;101772.63;5091959;28;20035;-84
2024/01/17 04:53:37;;;;;;;4.90;3.83;;;;;;;5.68;75.93;101723.38;5088820;28;20044;-84
2024/01/17 04:56:05;;;;;;;6.25;4.40;;;;;;;5.72;75.96;101741.00;5091154;28;20046;-84
2024/01/17 04:58:32;;;;;;;5.40;4.05;;;;;;;5.71;75.93;101746.97;5091528;28;20070;-84
2024/01/17 05:00:57;;;;;;;6.00;4.35;;;;;;;5.80;76.05;101765.03;5091913;28;20028;-83
2024/01/17 05:03:23;;;;;;;5.82;4.00;;;;;;;5.94;75.98;101797.34;5090156;28;20036;-84
2024/01/17 05:05:49;;;;;;;4.93;4.07;;;;;;;5.68;76.00;101761.34;5088913;28;20115;-83
2024/01/17 05:08:15;;;;;;;6.47;4.20;;;;;;;5.63;76.17;101766.09;5092686;28;20050;-84
2024/01/17 05:10:45;;;;;;;5.65;4.10;;;;;;;5.88;76.27;101808.09;5093064;28;20040;-85
2024/01/17 05:13:13;;;;;;;6.13;4.43;;;;;;;5.85;76.04;101801.72;5073764;28;20027;-84
2024/01/17 05:15:39;;;;;;;5.93;4.50;;;;;;;5.75;76.35;101786.09;5083888;28;20027;-85
2024/01/17 05:18:06;;;;;;;4.53;3.90;;;;;;;5.54;75.95;101752.31;5085816;28;20409;-85
2024/01/17 05:20:31;;;;;;;;;;;;;;;5.86;76.37;101813.88;5089580;28;20031;-85
2024/01/17 05:22:57;;;;;;;5.70;4.20;;;;;;;5.35;76.33;101729.03;5083718;28;19916;-85
2024/01/17 05:25:23;;;;;;;6.40;4.20;;;;;;;5.55;76.17;101769.69;5093629;28;20031;-83
2024/01/17 05:27:52;;;;;;;5.63;4.18;;;;;;;5.70;76.22;101793.47;5086143;28;20030;-84
2024/01/17 05:30:24;;;;;;;6.10;4.30;;;;;;;5.55;76.25;101772.28;5088010;28;20424;-84
2024/01/17 05:32:54;;;;;;;6.38;4.05;;;;;;;5.70;76.34;101804.75;5083191;28;20400;-85
2024/01/17 05:35:23;;;;;;;5.88;4.28;;;;;;;5.60;76.18;101794.31;5082769;28;20494;-85
2024/01/17 05:37:49;;;;;;;5.47;4.25;;;;;;;5.68;76.23;101806.28;5089721;28;20043;-85
2024/01/17 05:40:15;;;;;;;6.68;4.50;;;;;;;5.74;76.27;101816.31;5086246;28;20032;-86
2024/01/17 05:42:50;;;;;;;5.07;4.10;;;;;;;5.59;76.16;101800.28;5100846;28;20127;-85
2024/01/17 05:45:16;;;;;;;6.50;4.35;;;;;;;5.69;76.39;101814.97;5088728;28;20035;-86
2024/01/17 05:47:42;;;;;;;6.70;4.53;;;;;;;5.83;76.11;101834.38;5088691;28;20036;-85
2024/01/17 05:50:18;;;;;;;5.93;4.50;;;;;;;5.40;76.16;101752.78;5082846;28;20485;-86
2024/01/17 05:52:50;;;;;;;5.82;4.00;;;;;;;5.63;76.23;101804.03;5077083;28;20028;-85
2024/01/17 05:55:17;;;;;;;6.47;4.45;;;;;;;5.81;76.11;101839.41;5084966;28;20048;-86
2024/01/17 05:57:43;;;;;;;5.47;4.28;;;;;;;5.45;76.22;101782.56;5072701;28;20044;-87
2024/01/17 06:00:11;;;;;;;5.35;4.18;;;;;;;5.61;76.05;101822.06;5081420;28;20036;-86
2024/01/17 06:02:38;;;;;;;5.97;4.07;;;;;;;5.76;76.14;101842.34;5085824;28;20028;-85
2024/01/17 06:05:04;;;;;;;5.65;4.13;;;;;;;5.36;75.98;101787.84;5087473;28;20458;-86
2024/01/17 06:07:30;;;;;;;6.18;4.13;;;;;;;5.40;76.18;101794.22;5081297;28;20032;-85
2024/01/17 06:09:55;;;;;;;5.85;4.38;;;;;;;5.81;75.79;101862.72;5085280;28;20463;-84
2024/01/17 06:12:21;;;;;;;5.50;4.03;;;;;;;5.34;76.08;101781.59;5090008;28;20468;-86
2024/01/17 06:14:50;;;;;;;5.75;4.10;;;;;;;5.25;76.20;101770.41;5087840;28;20436;-85
2024/01/17 06:17:16;;;;;;;6.13;4.10;;;;;;;5.71;76.16;101852.28;5080869;28;20498;-86
2024/01/17 06:19:42;;;;;;;5.05;3.78;;;;;;;5.24;76.16;101776.34;5096042;27;20118;-85
2024/01/17 06:22:08;;;;;;;5.50;4.20;;;;;;;5.62;76.34;101844.59;5089497;28;20042;-85
2024/01/17 06:24:34;;;;;;;;;;;;;;;5.75;76.27;101863.88;5074458;28;20048;-87
2024/01/17 06:27:00;;;;;;;5.70;4.10;;;;;;;5.76;76.05;101870.84;5087804;28;19966;-85
2024/01/17 06:29:26;;;;;;;;;;;;;;;5.75;76.09;101869.03;5087850;28;20032;-85
2024/01/17 06:31:55;;;;;;;6.10;4.10;;;;;;;5.63;76.23;101855.88;5088092;28;19920;-85
2024/01/17 06:34:20;;;;;;;5.93;4.07;;;;;;;5.35;76.28;101803.22;5086342;28;20036;-85
2024/01/17 06:36:46;;;;;;;6.50;4.35;;;;;;;5.46;76.16;101828.41;5088917;28;20127;-86
2024/01/17 06:39:12;;;;;;;6.63;4.47;;;;;;;5.14;76.56;101766.81;5087733;28;20036;-86
2024/01/17 06:41:38;;;;;;;5.00;4.00;;;;;;;5.47;76.43;101830.25;5085092;28;20111;-86
2024/01/17 06:44:04;;;;;;;6.03;4.30;;;;;;;5.56;76.27;101846.63;5087748;28;20024;-88
2024/01/17 06:46:30;;;;;;;6.10;4.35;;;;;;;5.53;76.39;101848.97;5071733;28;20036;-86
2024/01/17 06:48:56;;;;;;;5.78;4.25;;;;;;;5.40;76.29;101833.97;5085295;28;20020;-87
2024/01/17 06:51:22;;;;;;;6.03;4.05;;;;;;;5.69;76.11;101874.56;5085697;28;20032;-86
2024/01/17 06:53:47;;;;;;;5.47;3.95;;;;;;;5.28;76.29;101804.34;5088251;28;20101;-86
2024/01/17 06:56:13;;;;;;;5.38;4.03;;;;;;;5.42;76.46;101828.91;5087371;28;20028;-85
2024/01/17 06:58:39;;;;;;;5.25;3.95;;;;;;;5.65;76.34;101867.28;5083185;28;20494;-86
2024/01/17 07:01:05;;;;;;;4.72;3.90;;;;;;;5.23;76.27;101793.56;5083510;28;20029;-87
2024/01/17 07:03:30;;;;;;;6.65;4.20;;;;;;;5.66;75.99;101875.22;5083561;28;20032;-86
2024/01/17 07:05:57;;;;;;;5.60;4.03;;;;;;;5.62;75.99;101872.19;5081331;28;20028;-87
2024/01/17 07:08:22;;;;;;;6.00;4.32;;;;;;;5.45;76.59;101834.38;5101336;28;20110;-86
2024/01/17 07:10:48;;;;;;;7.15;4.18;;;;;;;5.53;76.25;101858.41;5091197;28;20257;-84
2024/01/17 07:13:14;;;;;;;6.55;4.10;;;;;;;5.60;76.43;101858.19;5090753;28;20028;-85
2024/01/17 07:19:44;;;;;;;6.32;4.43;;;;;;;5.48;76.28;101847.59;5027725;28;20477;-86
2024/01/17 07:22:32;;;;;;;5.57;4.40;;;;;;;4.94;75.92;101749.47;5024462;28;20037;-86
2024/01/17 07:25:26;;;;;;;6.90;4.63;;;;;;;5.70;76.08;101879.00;5002294;28;20418;-87
2024/01/17 07:27:52;;;;;;;5.63;4.28;;;;;;;5.20;76.13;101794.97;5005329;28;20034;-85
2024/01/17 07:30:19;;;;;;;5.72;4.10;;;;;;;5.19;76.25;101808.69;5065960;28;20413;-86
2024/01/17 07:33:40;;;;;;;5.68;4.25;;;;;;;5.63;76.05;101876.59;5087142;28;20028;-85
2024/01/17 07:36:09;;;;;;;6.10;4.32;;;;;;;5.39;76.36;101834.72;5095075;28;20040;-85
2024/01/17 07:38:34;;;;;;;5.82;4.25;;;;;;;5.32;76.34;101815.91;5060345;28;20032;-85
2024/01/17 07:41:09;;;;;;;5.28;3.92;;;;;;;5.10;75.94;101762.13;5083442;28;20494;-84
2024/01/17 07:43:36;;;;;;;6.60;4.32;;;;;;;5.19;75.84;101794.06;5085010;28;20032;-85
2024/01/17 07:46:02;;;;;;;5.85;4.68;;;;;;;5.41;75.90;101819.34;5077442;28;20129;-84
2024/01/17 07:48:28;;;;;;;12.95;6.22;;;;;;;5.20;73.91;101775.16;5088371;28;20480;-85
2024/01/17 07:50:54;;;;;;;10.30;5.15;;;;;;;5.22;75.64;101796.03;5085750;28;20024;-85
2024/01/17 07:53:20;;;;;;;8.63;5.35;;;;;;;5.56;75.53;101841.44;5073514;28;20041;-88
2024/01/17 07:55:55;;;;;;;7.20;5.30;;;;;;;5.47;75.62;101832.84;5100573;28;20040;-92
2024/01/17 07:58:21;;;;;;;7.45;4.85;;;;;;;5.07;75.85;101767.94;5086372;28;21494;-89
2024/01/17 08:01:00;;;;;;;8.93;5.60;;;;;;;5.65;75.67;101873.41;5072469;28;20034;-91
2024/01/17 08:03:27;;;;;;;7.00;5.25;;;;;;;5.53;75.67;101833.41;5089085;28;20066;-89
2024/01/17 08:05:52;;;;;;;7.00;5.10;;;;;;;5.53;75.46;101825.63;5088317;28;20043;-92
2024/01/17 08:08:38;;;;;;;8.20;5.10;;;;;;;5.81;75.85;101873.09;5088335;28;20016;-90
2024/01/17 08:11:05;;;;;;;8.93;4.78;;;;;;;5.59;75.99;101840.81;5084274;28;20029;-88
2024/01/17 08:13:34;;;;;;;6.20;4.57;;;;;;;5.73;75.81;101858.53;5084203;28;20036;-88
2024/01/17 08:16:00;;;;;;;6.95;4.80;;;;;;;5.88;75.25;101874.56;5089818;28;20691;-91
2024/01/17 08:18:26;;;;;;;7.88;4.60;;;;;;;5.52;75.37;101803.06;5069501;28;20058;-90
2024/01/17 08:20:53;;;;;;;6.28;4.40;;;;;;;5.34;75.61;101784.19;5073527;28;20132;-89
2024/01/17 08:23:20;;;;;;;8.07;4.72;;;;;;;5.82;75.53;101853.25;5089779;28;20032;-89
2024/01/17 08:25:47;;;;;;;6.18;4.30;;;;;;;5.56;75.12;101809.47;5091225;28;20028;-89
2024/01/17 08:28:12;;;;;;;6.10;4.32;;;;;;;5.84;75.28;101857.84;5086913;28;20036;-90
2024/01/17 08:30:38;;;;;;;9.43;4.60;;;;;;;5.91;75.32;101867.09;5073138;28;20452;-89
2024/01/17 08:33:04;;;;;;;5.43;4.07;;;;;;;5.71;74.94;101837.69;5070240;28;20059;-90
2024/01/17 08:35:31;;;;;;;5.35;3.97;;;;;;;5.76;75.35;101830.31;5089038;28;20067;-89
2024/01/17 08:37:57;;;;;;;6.38;4.57;;;;;;;5.82;75.40;101849.03;5076943;28;20061;-89
2024/01/17 08:40:26;;;;;;;7.10;4.03;;;;;;;5.69;75.50;101821.09;5079692;28;20039;-90
2024/01/17 08:42:57;;;;;;;4.88;3.47;;;;;;;5.89;75.32;101858.25;5071849;28;20512;-90
2024/01/17 08:45:23;;;;;;;5.97;4.03;;;;;;;5.98;75.71;101851.31;5074780;28;20111;-88
2024/01/17 08:47:48;;;;;;;4.38;3.47;;;;;;;5.90;76.10;101834.13;5079365;28;20122;-85
2024/01/17 08:50:14;;;;;;;5.00;3.53;;;;;;;5.81;76.43;101820.34;5087752;28;20740;-85
2024/01/17 08:52:40;;;;;;;6.88;4.15;;;;;;;5.79;76.05;101804.66;5088259;28;20032;-85
2024/01/17 08:55:08;;;;;;;4.57;3.67;;;;;;;5.75;75.76;101789.59;5069530;28;20532;-85
2024/01/17 08:57:38;;;;;;;4.63;3.45;;;;;;;6.14;75.54;101844.91;5087216;28;20032;-85
2024/01/17 09:00:07;;;;;;;5.35;3.63;;;;;;;5.76;75.72;101774.94;5087173;28;20032;-87
2024/01/17 09:02:33;;;;;;;5.55;3.90;;;;;;;5.98;76.26;101812.44;5089350;28;20047;-83
2024/01/17 09:04:59;;;;;;;6.38;4.05;;;;;;;6.18;75.74;101834.97;5088759;28;20142;-85
2024/01/17 09:07:25;;;;;;;7.03;3.90;;;;;;;6.00;75.61;101790.16;5088277;28;20119;-86
2024/01/17 09:09:50;;;;;;;7.35;3.63;;;;;;;6.04;75.28;101786.16;5087235;28;20024;-85
2024/01/17 09:12:17;;;;;;;6.03;3.80;;;;;;;6.20;75.88;101817.84;5079580;28;20036;-85
2024/01/17 09:14:46;;;;;;;6.25;3.83;;;;;;;6.11;75.54;101804.06;5065355;28;20036;-87
2024/01/17 09:17:12;;;;;;;5.28;3.80;;;;;;;6.01;75.92;101779.03;5086302;28;20099;-86
2024/01/17 09:19:37;;;;;;;4.40;3.53;;;;;;;6.01;76.36;101768.66;5077273;28;20024;-85
2024/01/17 09:22:04;;;;;;;4.97;3.30;;;;;;;6.20;76.36;101803.94;5083666;28;20036;-86
2024/01/17 09:24:30;;;;;;;;;;;;;;;6.30;76.37;101807.50;5086988;28;20044;-85
2024/01/17 09:26:55;;;;;;;7.90;3.55;;;;;;;5.98;76.27;101742.44;5091052;28;19920;-85
2024/01/17 09:29:21;;;;;;;4.55;3.38;;;;;;;5.85;76.18;101718.78;5083707;28;20103;-86
2024/01/17 09:31:47;;;;;;;4.93;3.30;;;;;;;6.10;76.13;101759.06;5089979;28;20520;-85
2024/01/17 09:34:25;;;;;;;4.95;3.35;;;;;;;5.90;76.34;101720.06;5082315;28;20028;-85
2024/01/17 09:37:04;;;;;;;4.45;3.10;;;;;;;5.94;76.21;101710.88;5089716;28;20578;-85
2024/01/17 09:39:43;;;;;;;5.38;3.42;;;;;;;5.75;76.81;101653.94;5088261;28;20028;-87
2024/01/17 09:42:21;;;;;;;6.47;3.45;;;;;;;5.61;76.17;101640.69;5061840;28;20086;-85
2024/01/17 09:44:47;;;;;;;4.07;3.20;;;;;;;6.15;76.29;101724.84;5086807;28;20036;-84
2024/01/17 09:47:17;;;;;;;5.03;3.25;;;;;;;5.94;75.99;101672.91;5107812;28;20032;-83
2024/01/17 09:49:43;;;;;;;5.80;3.28;;;;;;;6.38;76.62;101751.09;5082307;28;20122;-85
2024/01/17 09:52:10;;;;;;;5.85;3.10;;;;;;;5.98;77.11;101693.16;5089268;28;20032;-86
2024/01/17 09:54:42;;;;;;;4.45;3.25;;;;;;;6.51;76.50;101779.00;5085941;28;20052;-86
2024/01/17 09:57:14;;;;;;;6.82;3.47;;;;;;;6.44;76.72;101749.03;5071612;28;20482;-85
2024/01/17 09:59:49;;;;;;;5.78;3.10;;;;;;;5.99;77.36;101658.72;5087377;28;20016;-86
2024/01/17 10:02:16;;;;;;;5.38;3.20;;;;;;;5.92;76.85;101646.84;5083080;28;20354;-86
2024/01/17 10:04:42;;;;;;;5.95;2.90;;;;;;;6.33;78.43;101705.69;5084927;28;20037;-86
2024/01/17 10:07:22;;;;;;;;;;;;;;;;;;;;;
2024/01/17 10:10:00;;;;;;;5.13;3.10;;;;;;;6.21;78.76;101661.44;5084953;28;20666;-86
2024/01/17 10:12:26;;;;;;;6.28;3.45;;;;;;;6.30;78.77;101656.13;5088752;28;20035;-86
2024/01/17 10:14:51;;;;;;;7.35;3.28;;;;;;;6.45;79.18;101685.06;5091015;28;20081;-85
2024/01/17 10:17:17;;;;;;;4.85;3.28;;;;;;;6.44;79.56;101676.38;5088752;28;20073;-86
2024/01/17 10:19:43;;;;;;;8.30;3.10;;;;;;;6.43;80.18;101682.34;5091786;28;20032;-87
2024/01/17 10:22:10;;;;;;;7.13;3.45;;;;;;;6.78;80.31;101723.38;5091957;28;20031;-86
2024/01/17 10:24:37;;;;;;;9.52;3.35;;;;;;;6.78;79.51;101723.38;5091030;28;20052;-85
2024/01/17 10:27:03;;;;;;;6.18;3.47;;;;;;;6.41;79.97;101633.69;5090120;28;20521;-85
2024/01/17 10:29:30;;;;;;;5.18;3.42;;;;;;;6.86;80.62;101714.53;5090195;28;20036;-85
2024/01/17 10:31:59;;;;;;;11.15;3.88;;;;;;;6.77;81.12;101684.28;5106726;28;20106;-85
2024/01/17 10:34:29;;;;;;;8.05;3.90;;;;;;;6.63;81.61;101658.09;5084023;28;20036;-88
2024/01/17 10:36:55;;;;;;;7.47;3.53;;;;;;;6.79;81.36;101678.44;5091139;28;20055;-84
2024/01/17 10:39:21;;;;;;;;;;;;;;;6.90;81.73;101692.31;5074249;28;20078;-85
2024/01/17 10:41:51;;;;;;;6.88;3.58;;;;;;;6.76;81.54;101654.84;5106892;28;20451;-84
2024/01/17 10:44:20;;;;;;;7.72;4.05;;;;;;;6.78;81.90;101655.88;5091892;28;20059;-84
2024/01/17 10:46:53;;;;;;;7.28;3.95;;;;;;;6.93;81.96;101677.00;5089440;28;20036;-86
2024/01/17 10:49:19;;;;;;;7.20;3.45;;;;;;;6.99;80.92;101667.13;5089145;28;20527;-85
2024/01/17 10:52:09;;;;;;;5.03;3.53;;;;;;;6.98;80.95;101659.19;5091033;28;20382;-84
2024/01/17 10:54:49;;;;;;;8.10;3.50;;;;;;;6.98;82.07;101659.19;5090581;28;20059;-85
2024/01/17 10:57:15;;;;;;;6.80;3.50;;;;;;;7.03;81.47;101658.81;5089307;28;20028;-85
2024/01/17 10:59:42;;;;;;;7.43;3.55;;;;;;;7.01;82.48;101654.28;5090329;28;20031;-84
2024/01/17 11:02:18;;;;;;;6.75;3.53;;;;;;;6.78;81.67;101609.13;5103600;28;20085;-85
2024/01/17 11:04:46;;;;;;;5.00;3.20;;;;;;;7.05;81.40;101646.88;5088118;28;20119;-85
2024/01/17 11:07:13;;;;;;;6.25;3.75;;;;;;;7.03;81.75;101634.53;5072164;28;20036;-86
2024/01/17 11:09:40;;;;;;;5.30;3.33;;;;;;;6.87;81.72;101606.38;5107008;28;20107;-86
2024/01/17 11:12:06;;;;;;;6.00;3.50;;;;;;;6.57;81.27;101552.88;5089201;28;20036;-86
2024/01/17 11:14:33;;;;;;;5.03;3.75;;;;;;;6.99;80.37;101620.38;5090022;28;20024;-86
2024/01/17 11:17:04;;;;;;;8.48;3.90;;;;;;;6.72;81.41;101567.09;5088655;28;20043;-86
2024/01/17 11:19:33;;;;;;;7.93;3.35;;;;;;;6.96;81.23;101611.44;5088607;28;20020;-86
2024/01/17 11:22:00;;;;;;;8.80;3.90;;;;;;;6.77;81.47;101581.34;5090041;28;20024;-85
2024/01/17 11:24:50;;;;;;;11.55;4.18;;;;;;;7.07;80.95;101627.13;5088828;28;20038;-87
2024/01/17 11:27:38;;;;;;;10.85;4.28;;;;;;;7.17;80.62;101636.53;5091516;28;20028;-86
2024/01/17 11:30:20;;;;;;;8.82;4.13;;;;;;;7.17;80.94;101646.94;5090015;28;20093;-87
2024/01/17 11:33:08;;;;;;;8.82;3.92;;;;;;;7.19;81.16;101634.97;5091444;28;20032;-87
2024/01/17 11:35:48;;;;;;;11.00;3.70;;;;;;;7.21;80.60;101637.72;5085004;28;20614;-87
2024/01/17 11:38:34;;;;;;;9.82;4.32;;;;;;;7.24;80.26;101630.16;5086168;28;20093;-89
2024/01/17 11:41:05;;;;;;;9.25;4.28;;;;;;;7.25;80.50;101626.78;5091344;28;20040;-89
2024/01/17 11:43:37;;;;;;;14.63;4.60;;;;;;;7.27;81.31;101612.22;5091868;28;20036;-90